KSBP

San Luis County Regional Airport

San Luis Obispo, California, USA
METAR KSBP 181513Z 00000KT 1/4SM FG VV002 09/08 A3012 RMK AO2 T00890083 $
Observed Flight Rules
Jan-18 @ 15:13 UTC (24 minutes ago) Instrument Flight Rules
Wind Visibility Clouds Conditions
Calm 1/4 miles
  • Vertical visibility at 200' AGL
  • Fog
Temperatures Readings
Current 9°C / 48°F
Dewpoint 8°C / 46°F
Humidity 94%
Altimeter 30.12" Hg
Pressure 1020 hPa
Elevation 59
METAR KSBP 181513Z 00000KT 1/4SM FG VV002 09/08 A3012 RMK AO2 T00890083 $
Observed Flight Rules
Jan-18 @ 15:13 UTC
(24 minutes ago)
LIFR
Wind Visibility
Calm 1/4 miles
Clouds
  • Vertical visibility at 200' AGL
Conditions
  • Fog
Temperature Dewpoint
9°C / 48°F 8°C / 46°F
Humidity Altimeter Pressure
94% 30.12" Hg 1020 hPa